sensor_id;sensor_type;location;lat;lon;timestamp;pressure;altitude;pressure_sealevel;temperature
74043;BMP280;62384;53.600;10.040;2023-07-31T00:01:26;2359.56;;;15.32
74043;BMP280;62384;53.600;10.040;2023-07-31T00:03:51;2025.00;;;15.35
74043;BMP280;62384;53.600;10.040;2023-07-31T00:06:16;2025.13;;;15.33
74043;BMP280;62384;53.600;10.040;2023-07-31T00:08:41;2359.38;;;15.34
74043;BMP280;62384;53.600;10.040;2023-07-31T00:11:06;2024.41;;;15.43
74043;BMP280;62384;53.600;10.040;2023-07-31T00:13:32;2024.19;;;15.46
74043;BMP280;62384;53.600;10.040;2023-07-31T00:15:57;2357.75;;;15.58
74043;BMP280;62384;53.600;10.040;2023-07-31T00:18:22;3695.91;;;15.60
74043;BMP280;62384;53.600;10.040;2023-07-31T00:20:48;3695.91;;;15.60
74043;BMP280;62384;53.600;10.040;2023-07-31T00:23:13;5034.88;;;15.59
74043;BMP280;62384;53.600;10.040;2023-07-31T00:25:39;5034.94;;;15.57
74043;BMP280;62384;53.600;10.040;2023-07-31T00:28:04;5369.63;;;15.63
74043;BMP280;62384;53.600;10.040;2023-07-31T00:30:29;7379.69;;;15.65
74043;BMP280;62384;53.600;10.040;2023-07-31T00:32:55;6709.50;;;15.64
74043;BMP280;62384;53.600;10.040;2023-07-31T00:35:20;7044.56;;;15.62
74043;BMP280;62384;53.600;10.040;2023-07-31T00:37:45;7379.63;;;15.59
74043;BMP280;62384;53.600;10.040;2023-07-31T00:40:11;8050.03;;;15.63
74043;BMP280;62384;53.600;10.040;2023-07-31T00:42:36;13419.72;;;15.72
74043;BMP280;62384;53.600;10.040;2023-07-31T00:45:01;13083.34;;;15.68
74043;BMP280;62384;53.600;10.040;2023-07-31T00:47:27;18126.97;;;15.74
74043;BMP280;62384;53.600;10.040;2023-07-31T00:49:52;20822.78;;;15.84
74043;BMP280;62384;53.600;10.040;2023-07-31T00:52:18;26557.00;;;15.87
74043;BMP280;62384;53.600;10.040;2023-07-31T00:54:44;36656.31;;;15.98
74043;BMP280;62384;53.600;10.040;2023-07-31T00:57:09;37820.78;;;15.96
74043;BMP280;62384;53.600;10.040;2023-07-31T00:59:35;40723.97;;;15.94
74043;BMP280;62384;53.600;10.040;2023-07-31T01:02:00;39370.50;;;15.91
74043;BMP280;62384;53.600;10.040;2023-07-31T01:04:26;42746.56;;;15.96
74043;BMP280;62384;53.600;10.040;2023-07-31T01:06:57;39474.38;;;15.92
74043;BMP280;62384;53.600;10.040;2023-07-31T01:10:15;36947.47;;;15.87
74043;BMP280;62384;53.600;10.040;2023-07-31T01:12:41;36388.88;;;15.87
74043;BMP280;62384;53.600;10.040;2023-07-31T01:15:09;36827.38;;;15.90
74043;BMP280;62384;53.600;10.040;2023-07-31T01:17:39;37429.94;;;15.93
74043;BMP280;62384;53.600;10.040;2023-07-31T01:20:12;34101.50;;;15.90
74043;BMP280;62384;53.600;10.040;2023-07-31T01:25:32;35411.69;;;15.97
74043;BMP280;62384;53.600;10.040;2023-07-31T01:28:07;34920.84;;;16.00
74043;BMP280;62384;53.600;10.040;2023-07-31T01:30:37;33365.13;;;15.99
74043;BMP280;62384;53.600;10.040;2023-07-31T01:33:06;32357.34;;;16.05
74043;BMP280;62384;53.600;10.040;2023-07-31T01:35:37;28772.00;;;15.98
74043;BMP280;62384;53.600;10.040;2023-07-31T01:38:03;33619.66;;;16.07
74043;BMP280;62384;53.600;10.040;2023-07-31T01:40:28;28694.03;;;16.01
74043;BMP280;62384;53.600;10.040;2023-07-31T01:42:53;28250.69;;;16.02
74043;BMP280;62384;53.600;10.040;2023-07-31T01:45:19;31400.06;;;15.91
74043;BMP280;62384;53.600;10.040;2023-07-31T01:47:44;28729.41;;;16.04
74043;BMP280;62384;53.600;10.040;2023-07-31T01:50:09;25885.75;;;16.00
74043;BMP280;62384;53.600;10.040;2023-07-31T01:52:34;28629.09;;;16.04
74043;BMP280;62384;53.600;10.040;2023-07-31T01:55:00;28931.38;;;16.08
74043;BMP280;62384;53.600;10.040;2023-07-31T01:57:25;27573.94;;;15.99
74043;BMP280;62384;53.600;10.040;2023-07-31T01:59:50;25550.44;;;16.07
74043;BMP280;62384;53.600;10.040;2023-07-31T02:02:18;28929.09;;;16.09
74043;BMP280;62384;53.600;10.040;2023-07-31T02:04:43;27577.16;;;16.08
74043;BMP280;62384;53.600;10.040;2023-07-31T02:07:08;28593.41;;;16.15
74043;BMP280;62384;53.600;10.040;2023-07-31T02:09:34;25551.50;;;16.11
74043;BMP280;62384;53.600;10.040;2023-07-31T02:11:59;26565.53;;;16.14
74043;BMP280;62384;53.600;10.040;2023-07-31T02:14:24;26227.63;;;16.13
74043;BMP280;62384;53.600;10.040;2023-07-31T02:16:50;24203.19;;;16.17
74043;BMP280;62384;53.600;10.040;2023-07-31T02:19:15;24540.56;;;16.17
74043;BMP280;62384;53.600;10.040;2023-07-31T02:21:40;24202.91;;;16.17
74043;BMP280;62384;53.600;10.040;2023-07-31T02:24:05;24540.84;;;16.18
74043;BMP280;62384;53.600;10.040;2023-07-31T02:26:31;23529.38;;;16.22
74043;BMP280;62384;53.600;10.040;2023-07-31T02:28:56;25886.50;;;16.02
74043;BMP280;62384;53.600;10.040;2023-07-31T02:31:21;26905.63;;;16.21
74043;BMP280;62384;53.600;10.040;2023-07-31T02:33:48;27243.97;;;16.23
74043;BMP280;62384;53.600;10.040;2023-07-31T02:36:13;30086.25;;;16.24
74043;BMP280;62384;53.600;10.040;2023-07-31T02:38:39;25216.47;;;16.20
74043;BMP280;62384;53.600;10.040;2023-07-31T02:41:04;25892.44;;;16.22
74043;BMP280;62384;53.600;10.040;2023-07-31T02:43:30;25554.88;;;16.22
74043;BMP280;62384;53.600;10.040;2023-07-31T02:45:55;25891.19;;;16.17
74043;BMP280;62384;53.600;10.040;2023-07-31T02:48:20;26567.94;;;16.22
74043;BMP280;62384;53.600;10.040;2023-07-31T02:50:47;26904.47;;;16.17
74043;BMP280;62384;53.600;10.040;2023-07-31T02:53:13;25893.22;;;16.24
74043;BMP280;62384;53.600;10.040;2023-07-31T02:55:38;24540.84;;;16.18
74043;BMP280;62384;53.600;10.040;2023-07-31T02:58:04;25216.31;;;16.19
74043;BMP280;62384;53.600;10.040;2023-07-31T03:00:30;23866.44;;;16.20
74043;BMP280;62384;53.600;10.040;2023-07-31T03:02:56;24541.88;;;16.22
74043;BMP280;62384;53.600;10.040;2023-07-31T03:05:21;23529.66;;;16.23
74043;BMP280;62384;53.600;10.040;2023-07-31T03:07:46;22516.91;;;16.20
74043;BMP280;62384;53.600;10.040;2023-07-31T03:10:11;21841.88;;;16.18
74043;BMP280;62384;53.600;10.040;2023-07-31T03:12:37;21502.78;;;16.10
74043;BMP280;62384;53.600;10.040;2023-07-31T03:15:02;21167.78;;;16.19
74043;BMP280;62384;53.600;10.040;2023-07-31T03:17:28;21505.06;;;16.20
74043;BMP280;62384;53.600;10.040;2023-07-31T03:19:53;20493.63;;;16.19
74043;BMP280;62384;53.600;10.040;2023-07-31T03:22:18;21168.03;;;16.20
74043;BMP280;62384;53.600;10.040;2023-07-31T03:24:44;21842.63;;;16.21
74043;BMP280;62384;53.600;10.040;2023-07-31T03:27:09;20831.50;;;16.23
74043;BMP280;62384;53.600;10.040;2023-07-31T03:29:34;19482.47;;;16.18
74043;BMP280;62384;53.600;10.040;2023-07-31T03:31:59;18134.84;;;16.17
74043;BMP280;62384;53.600;10.040;2023-07-31T03:34:25;18135.13;;;16.18
74043;BMP280;62384;53.600;10.040;2023-07-31T03:36:50;18809.78;;;16.24
74043;BMP280;62384;53.600;10.040;2023-07-31T03:39:15;21169.19;;;16.25
74043;BMP280;62384;53.600;10.040;2023-07-31T03:41:40;20833.31;;;16.31
74043;BMP280;62384;53.600;10.040;2023-07-31T03:44:07;22182.25;;;16.31
74043;BMP280;62384;53.600;10.040;2023-07-31T03:46:32;23869.63;;;16.32
74043;BMP280;62384;53.600;10.040;2023-07-31T03:48:59;23194.13;;;16.30
74043;BMP280;62384;53.600;10.040;2023-07-31T03:51:24;22519.97;;;16.32
74043;BMP280;62384;53.600;10.040;2023-07-31T03:53:49;22521.38;;;16.38
74043;BMP280;62384;53.600;10.040;2023-07-31T03:56:14;22858.00;;;16.35
74043;BMP280;62384;53.600;10.040;2023-07-31T03:58:39;22858.16;;;16.35
74043;BMP280;62384;53.600;10.040;2023-07-31T04:01:05;22857.63;;;16.33
74043;BMP280;62384;53.600;10.040;2023-07-31T04:03:30;22857.75;;;16.34
74043;BMP280;62384;53.600;10.040;2023-07-31T04:05:55;22520.88;;;16.36
74043;BMP280;62384;53.600;10.040;2023-07-31T04:08:22;22857.88;;;16.34
74043;BMP280;62384;53.600;10.040;2023-07-31T04:10:47;22520.88;;;16.36
74043;BMP280;62384;53.600;10.040;2023-07-31T04:13:13;22853.97;;;16.19
74043;BMP280;62384;53.600;10.040;2023-07-31T04:15:38;24884.91;;;16.40
74043;BMP280;62384;53.600;10.040;2023-07-31T04:18:04;21845.56;;;16.33
74043;BMP280;62384;53.600;10.040;2023-07-31T04:20:29;17800.72;;;16.31
74043;BMP280;62384;53.600;10.040;2023-07-31T04:22:55;17463.09;;;16.26
74043;BMP280;62384;53.600;10.040;2023-07-31T04:25:20;13761.25;;;16.22
74043;BMP280;62384;53.600;10.040;2023-07-31T04:27:45;12415.56;;;16.09
74043;BMP280;62384;53.600;10.040;2023-07-31T04:30:10;12080.41;;;16.19
74043;BMP280;62384;53.600;10.040;2023-07-31T04:32:36;10736.53;;;16.17
74043;BMP280;62384;53.600;10.040;2023-07-31T04:35:02;9729.03;;;16.13
74043;BMP280;62384;53.600;10.040;2023-07-31T04:37:27;11072.72;;;16.22
74043;BMP280;62384;53.600;10.040;2023-07-31T04:39:52;10736.44;;;16.15
74043;BMP280;62384;53.600;10.040;2023-07-31T04:42:17;8722.25;;;16.15
74043;BMP280;62384;53.600;10.040;2023-07-31T04:44:43;9728.97;;;16.11
74043;BMP280;62384;53.600;10.040;2023-07-31T04:47:08;9057.91;;;16.17
74043;BMP280;62384;53.600;10.040;2023-07-31T04:49:33;8386.63;;;16.13
74043;BMP280;62384;53.600;10.040;2023-07-31T04:51:59;8386.63;;;16.14
74043;BMP280;62384;53.600;10.040;2023-07-31T04:54:24;8051.03;;;16.09
74043;BMP280;62384;53.600;10.040;2023-07-31T04:56:49;7380.22;;;16.11
74043;BMP280;62384;53.600;10.040;2023-07-31T04:59:14;7044.84;;;16.09
74043;BMP280;62384;53.600;10.040;2023-07-31T05:01:39;6374.25;;;16.07
74043;BMP280;62384;53.600;10.040;2023-07-31T05:04:05;5369.00;;;15.93
74043;BMP280;62384;53.600;10.040;2023-07-31T05:06:30;4698.53;;;16.08
74043;BMP280;62384;53.600;10.040;2023-07-31T05:08:55;4028.63;;;16.05
74043;BMP280;62384;53.600;10.040;2023-07-31T05:11:21;3693.78;;;16.04
74043;BMP280;62384;53.600;10.040;2023-07-31T05:13:46;3693.75;;;16.04
74043;BMP280;62384;53.600;10.040;2023-07-31T05:16:11;3358.78;;;16.06
74043;BMP280;62384;53.600;10.040;2023-07-31T05:18:36;3359.03;;;16.01
74043;BMP280;62384;53.600;10.040;2023-07-31T05:21:02;3358.84;;;16.05
74043;BMP280;62384;53.600;10.040;2023-07-31T05:23:27;3693.84;;;16.02
74043;BMP280;62384;53.600;10.040;2023-07-31T05:25:52;3693.75;;;16.04
74043;BMP280;62384;53.600;10.040;2023-07-31T05:28:18;3693.63;;;16.07
74043;BMP280;62384;53.600;10.040;2023-07-31T05:30:43;4028.75;;;16.02
74043;BMP280;62384;53.600;10.040;2023-07-31T05:33:08;4698.59;;;16.05
74043;BMP280;62384;53.600;10.040;2023-07-31T05:35:33;3693.59;;;16.08
74043;BMP280;62384;53.600;10.040;2023-07-31T05:37:59;3693.72;;;16.05
74043;BMP280;62384;53.600;10.040;2023-07-31T05:40:24;4028.66;;;16.05
74043;BMP280;62384;53.600;10.040;2023-07-31T05:42:49;4028.59;;;16.06
74043;BMP280;62384;53.600;10.040;2023-07-31T05:45:14;3693.78;;;16.04
74043;BMP280;62384;53.600;10.040;2023-07-31T05:47:40;3024.19;;;16.02
74043;BMP280;62384;53.600;10.040;2023-07-31T05:50:05;2689.56;;;15.99
74043;BMP280;62384;53.600;10.040;2023-07-31T05:52:31;3024.16;;;16.02
74043;BMP280;62384;53.600;10.040;2023-07-31T05:54:56;2354.72;;;16.01
74043;BMP280;62384;53.600;10.040;2023-07-31T05:57:21;2689.31;;;16.03
74043;BMP280;62384;53.600;10.040;2023-07-31T05:59:47;3693.47;;;16.10
74043;BMP280;62384;53.600;10.040;2023-07-31T06:02:12;4028.78;;;16.02
74043;BMP280;62384;53.600;10.040;2023-07-31T06:04:38;3023.88;;;16.07
74043;BMP280;62384;53.600;10.040;2023-07-31T06:07:04;2353.81;;;16.14
74043;BMP280;62384;53.600;10.040;2023-07-31T06:09:30;2353.25;;;16.22
74043;BMP280;62384;53.600;10.040;2023-07-31T06:11:55;3358.94;;;16.03
74043;BMP280;62384;53.600;10.040;2023-07-31T06:14:20;4698.22;;;16.17
74043;BMP280;62384;53.600;10.040;2023-07-31T06:16:46;4028.09;;;16.18
74043;BMP280;62384;53.600;10.040;2023-07-31T06:19:11;3023.22;;;16.18
74043;BMP280;62384;53.600;10.040;2023-07-31T06:21:36;2687.84;;;16.26
74043;BMP280;62384;53.600;10.040;2023-07-31T06:24:03;3692.69;;;16.27
74043;BMP280;62384;53.600;10.040;2023-07-31T06:26:29;3357.78;;;16.25
74043;BMP280;62384;53.600;10.040;2023-07-31T06:28:54;3357.69;;;16.27
74043;BMP280;62384;53.600;10.040;2023-07-31T06:31:19;3357.72;;;16.26
74043;BMP280;62384;53.600;10.040;2023-07-31T06:33:48;3357.75;;;16.26
74043;BMP280;62384;53.600;10.040;2023-07-31T06:36:13;3357.41;;;16.32
74043;BMP280;62384;53.600;10.040;2023-07-31T06:38:38;2687.56;;;16.31
74043;BMP280;62384;53.600;10.040;2023-07-31T06:41:03;3357.97;;;16.22
74043;BMP280;62384;53.600;10.040;2023-07-31T06:43:29;2018.34;;;16.24
74043;BMP280;62384;53.600;10.040;2023-07-31T06:45:54;1014.09;;;16.24
74043;BMP280;62384;53.600;10.040;2023-07-31T06:48:19;10.53;;;16.22
74043;BMP280;62384;53.600;10.040;2023-07-31T06:50:45;679.75;;;16.21
74043;BMP280;62384;53.600;10.040;2023-07-31T06:53:10;-323.94;;;16.21
74043;BMP280;62384;53.600;10.040;2023-07-31T06:55:35;-324.16;;;16.23
74043;BMP280;62384;53.600;10.040;2023-07-31T06:58:00;-324.09;;;16.23
74043;BMP280;62384;53.600;10.040;2023-07-31T07:00:27;-324.53;;;16.27
74043;BMP280;62384;53.600;10.040;2023-07-31T07:02:52;-658.94;;;16.26
74043;BMP280;62384;53.600;10.040;2023-07-31T07:05:17;-658.28;;;16.20
74043;BMP280;62384;53.600;10.040;2023-07-31T07:07:43;-657.91;;;16.17
74043;BMP280;62384;53.600;10.040;2023-07-31T07:10:09;-993.69;;;16.28
74043;BMP280;62384;53.600;10.040;2023-07-31T07:12:35;-1662.91;;;16.31
74043;BMP280;62384;53.600;10.040;2023-07-31T07:15:01;-1327.34;;;16.22
74043;BMP280;62384;53.600;10.040;2023-07-31T07:17:28;-993.44;;;16.26
74043;BMP280;62384;53.600;10.040;2023-07-31T07:19:56;-1327.78;;;16.26
74043;BMP280;62384;53.600;10.040;2023-07-31T07:22:21;-2330.34;;;16.23
74043;BMP280;62384;53.600;10.040;2023-07-31T07:24:46;-2999.31;;;16.26
74043;BMP280;62384;53.600;10.040;2023-07-31T07:27:12;-3332.91;;;16.23
74043;BMP280;62384;53.600;10.040;2023-07-31T07:29:37;-4000.81;;;16.21
74043;BMP280;62384;53.600;10.040;2023-07-31T07:32:03;-4000.38;;;16.19
74043;BMP280;62384;53.600;10.040;2023-07-31T07:34:28;-4000.47;;;16.19
74043;BMP280;62384;53.600;10.040;2023-07-31T07:36:54;-4000.38;;;16.19
74043;BMP280;62384;53.600;10.040;2023-07-31T07:39:20;-4000.91;;;16.22
74043;BMP280;62384;53.600;10.040;2023-07-31T07:41:46;-4335.28;;;16.24
74043;BMP280;62384;53.600;10.040;2023-07-31T07:44:12;-4670.00;;;16.28
74043;BMP280;62384;53.600;10.040;2023-07-31T07:46:37;-5004.63;;;16.31
74043;BMP280;62384;53.600;10.040;2023-07-31T07:49:03;-5005.19;;;16.34
74043;BMP280;62384;53.600;10.040;2023-07-31T07:51:28;-4671.75;;;16.37
74043;BMP280;62384;53.600;10.040;2023-07-31T07:53:55;-4672.84;;;16.43
74043;BMP280;62384;53.600;10.040;2023-07-31T07:56:21;-4338.84;;;16.44
74043;BMP280;62384;53.600;10.040;2023-07-31T07:58:48;-4337.78;;;16.38
74043;BMP280;62384;53.600;10.040;2023-07-31T08:01:14;-4006.25;;;16.53
74043;BMP280;62384;53.600;10.040;2023-07-31T08:03:39;-4005.31;;;16.47
74043;BMP280;62384;53.600;10.040;2023-07-31T08:06:05;-4005.13;;;16.46
74043;BMP280;62384;53.600;10.040;2023-07-31T08:08:30;-4006.44;;;16.54
74043;BMP280;62384;53.600;10.040;2023-07-31T08:10:55;-4007.72;;;16.61
74043;BMP280;62384;53.600;10.040;2023-07-31T08:13:20;-3340.09;;;16.67
74043;BMP280;62384;53.600;10.040;2023-07-31T08:15:46;-3341.88;;;16.78
74043;BMP280;62384;53.600;10.040;2023-07-31T08:18:11;-3342.13;;;16.80
74043;BMP280;62384;53.600;10.040;2023-07-31T08:20:37;-3341.81;;;16.78
74043;BMP280;62384;53.600;10.040;2023-07-31T08:23:02;-3340.84;;;16.72
74043;BMP280;62384;53.600;10.040;2023-07-31T08:25:28;-3676.88;;;16.82
74043;BMP280;62384;53.600;10.040;2023-07-31T08:27:54;-3344.06;;;16.92
74043;BMP280;62384;53.600;10.040;2023-07-31T08:30:19;-3011.34;;;17.03
74043;BMP280;62384;53.600;10.040;2023-07-31T08:32:44;-2008.06;;;17.09
74043;BMP280;62384;53.600;10.040;2023-07-31T08:35:10;-2009.59;;;17.20
74043;BMP280;62384;53.600;10.040;2023-07-31T08:37:35;-1675.84;;;17.28
74043;BMP280;62384;53.600;10.040;2023-07-31T08:40:00;-336.53;;;17.33
74043;BMP280;62384;53.600;10.040;2023-07-31T08:42:26;333.31;;;17.37
74043;BMP280;62384;53.600;10.040;2023-07-31T08:44:52;1003.94;;;17.36
74043;BMP280;62384;53.600;10.040;2023-07-31T08:47:19;668.53;;;17.37
74043;BMP280;62384;53.600;10.040;2023-07-31T08:49:46;332.03;;;17.50
74043;BMP280;62384;53.600;10.040;2023-07-31T08:52:11;1002.28;;;17.54
74043;BMP280;62384;53.600;10.040;2023-07-31T08:54:36;2008.16;;;17.59
74043;BMP280;62384;53.600;10.040;2023-07-31T08:57:03;1673.25;;;17.52
74043;BMP280;62384;53.600;10.040;2023-07-31T08:59:30;3351.69;;;17.39
74043;BMP280;62384;53.600;10.040;2023-07-31T09:01:57;668.69;;;17.36
74043;BMP280;62384;53.600;10.040;2023-07-31T09:04:27;1338.91;;;17.39
74043;BMP280;62384;53.600;10.040;2023-07-31T09:06:57;3016.41;;;17.34
74043;BMP280;62384;53.600;10.040;2023-07-31T09:09:24;2010.13;;;17.33
74043;BMP280;62384;53.600;10.040;2023-07-31T09:11:50;670.00;;;17.22
74043;BMP280;62384;53.600;10.040;2023-07-31T09:14:16;335.56;;;17.15
74043;BMP280;62384;53.600;10.040;2023-07-31T09:16:53;-669.53;;;17.16
74043;BMP280;62384;53.600;10.040;2023-07-31T09:19:32;-1004.59;;;17.17
74043;BMP280;62384;53.600;10.040;2023-07-31T09:21:58;-1338.78;;;17.11
74043;BMP280;62384;53.600;10.040;2023-07-31T09:24:32;-1002.88;;;17.02
74043;BMP280;62384;53.600;10.040;2023-07-31T09:27:00;-1674.28;;;17.16
74043;BMP280;62384;53.600;10.040;2023-07-31T09:29:27;-2007.97;;;17.08
74043;BMP280;62384;53.600;10.040;2023-07-31T09:31:53;-1336.53;;;16.93
74043;BMP280;62384;53.600;10.040;2023-07-31T09:34:20;-333.66;;;17.08
74043;BMP280;62384;53.600;10.040;2023-07-31T09:36:52;-334.28;;;17.13
74043;BMP280;62384;53.600;10.040;2023-07-31T09:39:18;1340.91;;;17.16
74043;BMP280;62384;53.600;10.040;2023-07-31T09:41:54;2346.59;;;17.18
74043;BMP280;62384;53.600;10.040;2023-07-31T09:44:19;1004.53;;;17.29
74043;BMP280;62384;53.600;10.040;2023-07-31T09:46:45;668.44;;;17.38
74043;BMP280;62384;53.600;10.040;2023-07-31T09:49:11;6373.63;;;17.28
74043;BMP280;62384;53.600;10.040;2023-07-31T09:51:38;5030.19;;;17.36
74043;BMP280;62384;53.600;10.040;2023-07-31T09:54:10;5701.50;;;17.54
74043;BMP280;62384;53.600;10.040;2023-07-31T09:56:41;5701.47;;;17.56
74043;BMP280;62384;53.600;10.040;2023-07-31T09:59:07;5365.88;;;17.41
74043;BMP280;62384;53.600;10.040;2023-07-31T10:01:33;8390.44;;;17.53
74043;BMP280;62384;53.600;10.040;2023-07-31T10:03:58;7045.66;;;17.53
74043;BMP280;62384;53.600;10.040;2023-07-31T10:06:25;5365.72;;;17.48
74043;BMP280;62384;53.600;10.040;2023-07-31T10:08:52;7381.59;;;17.35
74043;BMP280;62384;53.600;10.040;2023-07-31T10:11:20;5702.00;;;17.23
74043;BMP280;62384;53.600;10.040;2023-07-31T10:13:46;4023.56;;;17.24
74043;BMP280;62384;53.600;10.040;2023-07-31T10:16:11;1676.13;;;17.16
74043;BMP280;62384;53.600;10.040;2023-07-31T10:18:38;670.22;;;17.20
74043;BMP280;62384;53.600;10.040;2023-07-31T10:21:05;-670.72;;;17.26
74043;BMP280;62384;53.600;10.040;2023-07-31T10:23:31;-0.56;;;17.25
74043;BMP280;62384;53.600;10.040;2023-07-31T10:25:56;-336.16;;;17.30
74043;BMP280;62384;53.600;10.040;2023-07-31T10:28:22;-1006.59;;;17.33
74043;BMP280;62384;53.600;10.040;2023-07-31T10:30:49;-337.50;;;17.42
74043;BMP280;62384;53.600;10.040;2023-07-31T10:33:14;-1008.63;;;17.49
74043;BMP280;62384;53.600;10.040;2023-07-31T10:35:40;-674.69;;;17.59
74043;BMP280;62384;53.600;10.040;2023-07-31T10:38:10;-674.16;;;17.55
74043;BMP280;62384;53.600;10.040;2023-07-31T10:40:36;3687.31;;;17.38
74043;BMP280;62384;53.600;10.040;2023-07-31T10:43:02;3687.56;;;17.33
74043;BMP280;62384;53.600;10.040;2023-07-31T10:45:38;2010.59;;;17.27
74043;BMP280;62384;53.600;10.040;2023-07-31T10:48:13;1675.19;;;17.28
74043;BMP280;62384;53.600;10.040;2023-07-31T10:50:49;-1340.59;;;17.25
74043;BMP280;62384;53.600;10.040;2023-07-31T10:53:29;-2344.09;;;17.18
74043;BMP280;62384;53.600;10.040;2023-07-31T10:56:01;-3014.72;;;17.25
74043;BMP280;62384;53.600;10.040;2023-07-31T10:58:27;-2677.31;;;17.08
74043;BMP280;62384;53.600;10.040;2023-07-31T11:00:56;-3010.88;;;17.00
74043;BMP280;62384;53.600;10.040;2023-07-31T11:03:40;-3346.25;;;17.06
74043;BMP280;62384;53.600;10.040;2023-07-31T11:06:09;-2342.72;;;17.08
74043;BMP280;62384;53.600;10.040;2023-07-31T11:08:43;-2675.88;;;16.98
74043;BMP280;62384;53.600;10.040;2023-07-31T11:11:10;-3680.47;;;17.03
74043;BMP280;62384;53.600;10.040;2023-07-31T11:13:50;-4351.72;;;17.17
74043;BMP280;62384;53.600;10.040;2023-07-31T11:16:19;-4687.59;;;17.24
74043;BMP280;62384;53.600;10.040;2023-07-31T11:18:45;-3347.38;;;17.13
74043;BMP280;62384;53.600;10.040;2023-07-31T11:21:16;-3349.47;;;17.26
74043;BMP280;62384;53.600;10.040;2023-07-31T11:23:45;-3685.63;;;17.35
74043;BMP280;62384;53.600;10.040;2023-07-31T11:26:11;-2679.75;;;17.24
74043;BMP280;62384;53.600;10.040;2023-07-31T11:28:36;-3349.72;;;17.27
74043;BMP280;62384;53.600;10.040;2023-07-31T11:31:02;-3684.22;;;17.26
74043;BMP280;62384;53.600;10.040;2023-07-31T11:33:28;-4019.00;;;17.27
74043;BMP280;62384;53.600;10.040;2023-07-31T11:35:53;-4351.56;;;17.16
74043;BMP280;62384;53.600;10.040;2023-07-31T11:38:29;-4017.13;;;17.16
74043;BMP280;62384;53.600;10.040;2023-07-31T11:40:56;-4018.59;;;17.25
74043;BMP280;62384;53.600;10.040;2023-07-31T11:43:22;-4354.66;;;17.33
74043;BMP280;62384;53.600;10.040;2023-07-31T11:45:52;-3348.28;;;17.18
74043;BMP280;62384;53.600;10.040;2023-07-31T11:48:19;-4018.94;;;17.27
74043;BMP280;62384;53.600;10.040;2023-07-31T11:50:44;-3683.81;;;17.24
74043;BMP280;62384;53.600;10.040;2023-07-31T11:53:11;-4018.16;;;17.22
74043;BMP280;62384;53.600;10.040;2023-07-31T11:55:37;-4353.59;;;17.27
74043;BMP280;62384;53.600;10.040;2023-07-31T11:58:03;-3682.47;;;17.16
74043;BMP280;62384;53.600;10.040;2023-07-31T12:00:28;-2679.97;;;17.25
74043;BMP280;62384;53.600;10.040;2023-07-31T12:02:54;-2679.28;;;17.21
74043;BMP280;62384;53.600;10.040;2023-07-31T12:05:19;-1340.59;;;17.25
74043;BMP280;62384;53.600;10.040;2023-07-31T12:10:10;-1675.84;;;17.28
74043;BMP280;62384;53.600;10.040;2023-07-31T12:12:36;-1339.81;;;17.19
74043;BMP280;62384;53.600;10.040;2023-07-31T12:15:01;-1674.16;;;17.15
74043;BMP280;62384;53.600;10.040;2023-07-31T12:17:27;-2344.25;;;17.19
74043;BMP280;62384;53.600;10.040;2023-07-31T12:19:52;-2680.25;;;17.27
74043;BMP280;62384;53.600;10.040;2023-07-31T12:22:19;-2010.72;;;17.28
74043;BMP280;62384;53.600;10.040;2023-07-31T12:24:46;-2011.06;;;17.30
74043;BMP280;62384;53.600;10.040;2023-07-31T12:27:12;-1676.50;;;17.33
74043;BMP280;62384;53.600;10.040;2023-07-31T12:29:38;-2345.69;;;17.29
74043;BMP280;62384;53.600;10.040;2023-07-31T12:32:05;-2348.16;;;17.46
74043;BMP280;62384;53.600;10.040;2023-07-31T12:34:43;-3019.94;;;17.59
74043;BMP280;62384;53.600;10.040;2023-07-31T12:37:08;-1679.94;;;17.58
74043;BMP280;62384;53.600;10.040;2023-07-31T12:39:34;-1679.56;;;17.55
74043;BMP280;62384;53.600;10.040;2023-07-31T12:41:59;-1678.28;;;17.46
74043;BMP280;62384;53.600;10.040;2023-07-31T12:44:24;-2013.88;;;17.50
74043;BMP280;62384;53.600;10.040;2023-07-31T12:46:49;-2350.72;;;17.63
74043;BMP280;62384;53.600;10.040;2023-07-31T12:49:14;-1680.91;;;17.65
74043;BMP280;62384;53.600;10.040;2023-07-31T12:51:40;-1008.75;;;17.50
74043;BMP280;62384;53.600;10.040;2023-07-31T12:54:05;-1680.22;;;17.60
74043;BMP280;62384;53.600;10.040;2023-07-31T12:56:31;-3021.34;;;17.68
74043;BMP280;62384;53.600;10.040;2023-07-31T12:58:56;-3021.19;;;17.67
74043;BMP280;62384;53.600;10.040;2023-07-31T13:01:21;-3357.31;;;17.74
74043;BMP280;62384;53.600;10.040;2023-07-31T13:03:47;-2017.44;;;17.76
74043;BMP280;62384;53.600;10.040;2023-07-31T13:06:12;-1682.56;;;17.78
74043;BMP280;62384;53.600;10.040;2023-07-31T13:08:38;-1011.78;;;17.75
74043;BMP280;62384;53.600;10.040;2023-07-31T13:11:03;-1010.38;;;17.63
74043;BMP280;62384;53.600;10.040;2023-07-31T13:13:28;-1345.78;;;17.65
74043;BMP280;62384;53.600;10.040;2023-07-31T13:15:55;-1345.25;;;17.61
74043;BMP280;62384;53.600;10.040;2023-07-31T13:18:20;-2015.75;;;17.64
74043;BMP280;62384;53.600;10.040;2023-07-31T13:20:45;-1680.22;;;17.60
74043;BMP280;62384;53.600;10.040;2023-07-31T13:23:11;-2016.41;;;17.68
74043;BMP280;62384;53.600;10.040;2023-07-31T13:28:58;-2016.41;;;17.68
74043;BMP280;62384;53.600;10.040;2023-07-31T13:31:23;-1679.06;;;17.52
74043;BMP280;62384;53.600;10.040;2023-07-31T13:33:48;-2348.81;;;17.50
74043;BMP280;62384;53.600;10.040;2023-07-31T13:36:13;-3018.47;;;17.49
74043;BMP280;62384;53.600;10.040;2023-07-31T13:38:39;-3354.25;;;17.55
74043;BMP280;62384;53.600;10.040;2023-07-31T13:41:04;-3020.63;;;17.63
74043;BMP280;62384;53.600;10.040;2023-07-31T13:43:30;-3019.31;;;17.55
74043;BMP280;62384;53.600;10.040;2023-07-31T13:45:55;-3354.00;;;17.54
74043;BMP280;62384;53.600;10.040;2023-07-31T13:48:21;-3018.53;;;17.50
74043;BMP280;62384;53.600;10.040;2023-07-31T13:50:46;-3689.47;;;17.58
74043;BMP280;62384;53.600;10.040;2023-07-31T13:53:11;-3355.13;;;17.61
74043;BMP280;62384;53.600;10.040;2023-07-31T13:55:36;-2684.34;;;17.54
74043;BMP280;62384;53.600;10.040;2023-07-31T13:58:02;-3352.38;;;17.44
74043;BMP280;62384;53.600;10.040;2023-07-31T14:00:27;-3685.06;;;17.31
74043;BMP280;62384;53.600;10.040;2023-07-31T14:02:53;-4355.19;;;17.36
74043;BMP280;62384;53.600;10.040;2023-07-31T14:05:19;-5025.19;;;17.41